Time;durP1;ratioP1;P1;durP2;ratioP2;P2;SDS_P1;SDS_P2;PMS_P1;PMS_P2;Temp;Humidity;BMP_temperature;BMP_pressure;BME280_temperature;BME280_humidity;BME280_pressure;Samples;Min_cycle;Max_cycle;Signal;HPM_P1;HPM_P2
2023/07/16 00:11:44;;;;;;;5.40;4.00;;;;;;;21.60;59.60;99600.50;30867582;28;109913;-67
2023/07/16 00:26:44;;;;;;;5.80;3.80;;;;;;;21.44;60.51;99591.38;30865714;28;113135;-67
2023/07/16 00:41:44;;;;;;;5.53;3.77;;;;;;;21.30;61.33;99589.09;30864429;28;110879;-67
2023/07/16 00:56:45;;;;;;;5.93;4.00;;;;;;;21.17;62.31;99581.38;30863484;28;96622;-67
2023/07/16 01:11:47;;;;;;;5.73;4.10;;;;;;;21.01;63.18;99583.13;30861543;28;96805;-67
2023/07/16 01:27:07;;;;;;;7.17;4.23;;;;;;;20.81;63.81;99572.88;30860631;28;97249;-66
2023/07/16 01:42:08;;;;;;;;;;;;;;;20.60;64.67;99545.53;30860550;28;97136;-67
2023/07/16 01:57:08;;;;;;;6.32;4.30;;;;;;;20.46;65.48;99546.97;30858404;28;97439;-67
2023/07/16 02:12:08;;;;;;;4.40;3.47;;;;;;;20.37;66.20;99543.88;30857348;28;96753;-67
2023/07/16 02:27:09;;;;;;;7.40;4.90;;;;;;;20.31;66.38;99568.41;30854968;28;113511;-67
2023/07/16 02:42:09;;;;;;;7.37;4.40;;;;;;;20.25;66.64;99595.38;30855167;28;97363;-67
2023/07/16 02:57:09;;;;;;;5.00;3.90;;;;;;;20.30;67.09;99594.66;30854483;28;98260;-67
2023/07/16 03:12:10;;;;;;;6.80;4.37;;;;;;;20.29;67.04;99622.75;30866128;28;106875;-67
2023/07/16 03:27:10;;;;;;;8.83;4.40;;;;;;;20.35;67.24;99643.38;30871221;28;96798;-68
2023/07/16 03:42:10;;;;;;;10.73;4.47;;;;;;;20.58;67.75;99780.34;30870629;28;96646;-68
2023/07/16 03:57:11;;;;;;;7.37;3.40;;;;;;;21.11;67.41;99802.56;30868684;28;108666;-69
2023/07/16 04:12:11;;;;;;;6.30;4.17;;;;;;;21.72;67.34;99815.31;30836171;28;96928;-67
2023/07/16 04:27:11;;;;;;;5.87;3.90;;;;;;;22.74;65.42;99847.22;30802197;28;102934;-67
2023/07/16 04:42:11;;;;;;;;;;;;;;;23.40;62.47;99866.97;30863813;28;96880;-67
2023/07/16 04:57:12;;;;;;;8.43;3.47;;;;;;;23.88;60.33;99881.38;30861840;28;96698;-67
2023/07/16 05:12:12;;;;;;;7.72;3.22;;;;;;;24.34;58.65;99913.34;30861138;28;96615;-67
2023/07/16 05:27:12;;;;;;;3.92;2.67;;;;;;;24.99;56.58;99937.44;30858112;28;111486;-70
2023/07/16 05:42:13;;;;;;;7.38;3.10;;;;;;;25.45;54.50;99940.16;30858510;28;97387;-67
2023/07/16 05:57:13;;;;;;;5.32;2.47;;;;;;;25.96;52.58;99933.72;30855026;28;96613;-67
2023/07/16 06:12:14;;;;;;;8.45;2.10;;;;;;;26.48;50.56;99971.72;30856541;28;98175;-67
2023/07/16 06:27:14;;;;;;;4.65;2.47;;;;;;;27.03;48.62;100002.50;30777180;28;96892;-72
2023/07/16 06:42:15;;;;;;;3.65;2.35;;;;;;;27.05;48.09;100015.09;30857506;28;97138;-68
2023/07/16 06:57:15;;;;;;;2.95;1.50;;;;;;;27.24;47.10;100037.09;30879630;28;97091;-67
2023/07/16 07:12:16;;;;;;;4.13;1.30;;;;;;;27.49;46.46;100056.06;30880563;28;97070;-67
2023/07/16 07:27:16;;;;;;;5.15;1.25;;;;;;;28.27;44.19;100042.44;30874884;28;111239;-67
2023/07/16 07:42:16;;;;;;;2.13;1.38;;;;;;;28.47;43.89;100040.53;30888283;28;96813;-67
2023/07/16 07:57:17;;;;;;;2.17;1.17;;;;;;;29.50;42.00;100039.88;30873453;28;115365;-68
2023/07/16 08:12:18;;;;;;;2.90;1.23;;;;;;;30.49;40.01;100019.63;30864649;28;96828;-68
2023/07/16 08:27:19;;;;;;;1.38;0.90;;;;;;;32.05;38.12;100008.06;30859673;28;105976;-67
2023/07/16 08:42:20;;;;;;;2.38;1.35;;;;;;;32.90;35.91;99993.13;30861883;28;97312;-68
2023/07/16 08:57:21;;;;;;;1.98;1.05;;;;;;;32.63;34.54;99977.69;30858716;28;97546;-67
2023/07/16 09:12:23;;;;;;;1.93;1.10;;;;;;;30.47;37.41;100024.59;30857477;28;96714;-68
2023/07/16 09:27:33;;;;;;;4.83;1.40;;;;;;;29.38;41.23;99971.75;30858032;28;97138;-67
2023/07/16 09:42:38;;;;;;;3.77;1.73;;;;;;;30.75;41.41;100000.59;30857105;28;97340;-67
2023/07/16 09:57:42;;;;;;;3.20;1.30;;;;;;;32.05;39.57;100021.00;30850164;28;97384;-67
2023/07/16 10:12:42;;;;;;;3.47;1.40;;;;;;;31.17;39.33;100055.50;30841326;28;97780;-67
2023/07/16 10:27:44;;;;;;;2.90;1.42;;;;;;;30.61;40.74;100066.63;30832128;28;97574;-67
2023/07/16 10:42:46;;;;;;;2.20;1.30;;;;;;;29.49;42.71;100075.84;30814454;28;97339;-69
2023/07/16 10:57:48;;;;;;;3.70;1.33;;;;;;;28.78;44.38;100090.31;30850893;28;96736;-67
2023/07/16 11:12:53;;;;;;;2.13;1.47;;;;;;;27.83;46.01;100106.38;30849379;28;96852;-67
2023/07/16 11:27:56;;;;;;;3.13;1.30;;;;;;;27.76;46.59;100105.91;30845784;28;97382;-67
2023/07/16 11:42:57;;;;;;;1.47;1.23;;;;;;;28.58;46.08;100106.97;30802970;28;96753;-67
2023/07/16 11:57:59;;;;;;;2.33;1.10;;;;;;;28.68;45.14;100121.41;30800313;28;107608;-67
2023/07/16 12:12:59;;;;;;;3.60;1.33;;;;;;;28.90;43.69;100120.03;30760249;28;96845;-66
2023/07/16 12:28:01;;;;;;;2.70;1.13;;;;;;;29.51;42.59;100112.00;30789945;28;97412;-66
2023/07/16 12:43:02;;;;;;;2.73;1.20;;;;;;;29.58;42.67;100111.63;30799659;28;98057;-66
2023/07/16 12:58:02;;;;;;;3.92;1.52;;;;;;;30.01;42.04;100104.03;30760723;28;114430;-67
2023/07/16 13:13:03;;;;;;;3.55;1.33;;;;;;;30.07;41.56;100098.47;30779094;28;97302;-66
2023/07/16 13:28:05;;;;;;;2.97;1.23;;;;;;;29.76;41.89;100127.25;30851151;28;96996;-68
2023/07/16 13:43:05;;;;;;;2.57;1.40;;;;;;;30.23;42.15;100131.97;30847769;28;96800;-67
2023/07/16 13:58:06;;;;;;;2.40;1.40;;;;;;;31.21;40.70;100137.09;30844620;28;96782;-67
2023/07/16 14:13:06;;;;;;;3.20;1.00;;;;;;;31.34;39.97;100121.69;30833756;28;96708;-68
2023/07/16 14:28:06;;;;;;;1.88;1.20;;;;;;;30.59;40.89;100120.28;30812426;28;112932;-68
2023/07/16 14:43:07;;;;;;;2.05;1.50;;;;;;;29.18;43.85;100120.19;30737916;28;97253;-68
2023/07/16 14:58:07;;;;;;;3.13;1.50;;;;;;;28.70;44.79;100104.66;30720219;28;96918;-67
2023/07/16 15:13:08;;;;;;;1.98;1.40;;;;;;;28.01;46.31;100083.78;30739781;28;97194;-66
2023/07/16 15:28:10;;;;;;;3.38;1.92;;;;;;;28.14;46.64;100090.47;30760523;28;110432;-67
2023/07/16 15:43:10;;;;;;;4.17;1.70;;;;;;;28.49;46.02;100088.44;30748754;28;96766;-66
2023/07/16 15:58:12;;;;;;;2.45;1.80;;;;;;;29.01;46.03;100072.16;30746778;28;115989;-66
2023/07/16 16:13:12;;;;;;;4.40;1.73;;;;;;;28.82;46.01;100074.91;30744235;28;96719;-66
2023/07/16 16:28:13;;;;;;;3.17;1.73;;;;;;;28.64;46.23;100071.03;30744123;28;97664;-66
2023/07/16 16:43:13;;;;;;;3.67;1.52;;;;;;;28.06;45.95;100057.47;30848126;28;96753;-67
2023/07/16 16:58:14;;;;;;;2.40;1.65;;;;;;;27.73;46.73;100079.13;30861160;28;96777;-67
2023/07/16 17:13:14;;;;;;;2.67;1.70;;;;;;;27.48;46.42;100083.72;30859160;28;97449;-67
2023/07/16 17:28:14;;;;;;;2.45;1.65;;;;;;;27.27;46.93;100102.16;30859263;28;96895;-67
2023/07/16 17:43:15;;;;;;;2.53;1.80;;;;;;;26.96;47.51;100110.56;30857453;28;110321;-67
2023/07/16 17:58:16;;;;;;;2.35;1.63;;;;;;;26.63;48.04;100113.69;30855243;28;109965;-67
2023/07/16 18:13:16;;;;;;;2.77;1.60;;;;;;;26.26;47.90;100112.16;30849888;28;97631;-67
2023/07/16 18:28:16;;;;;;;3.85;1.60;;;;;;;25.99;47.74;100120.66;30852256;28;109379;-69
2023/07/16 18:43:17;;;;;;;3.72;1.65;;;;;;;25.57;47.96;100119.84;30842763;28;97074;-67
2023/07/16 18:58:17;;;;;;;3.50;1.88;;;;;;;25.07;48.01;100135.81;30843384;28;97404;-67
2023/07/16 19:13:19;;;;;;;5.50;2.85;;;;;;;24.57;49.12;100146.22;30841458;28;97039;-68
2023/07/16 19:28:19;;;;;;;7.40;4.00;;;;;;;24.09;50.74;100151.66;30799932;28;99465;-67
2023/07/16 19:43:20;;;;;;;11.65;6.45;;;;;;;23.93;51.58;100158.06;30796934;28;112379;-67
2023/07/16 19:58:21;;;;;;;10.70;6.13;;;;;;;24.28;52.55;100151.25;30735069;28;97293;-67
2023/07/16 20:13:22;;;;;;;13.73;6.70;;;;;;;24.75;52.40;100150.41;30736155;28;97453;-66
2023/07/16 20:28:25;;;;;;;5.13;3.90;;;;;;;24.75;52.12;100161.31;30838335;28;114199;-67
2023/07/16 20:43:25;;;;;;;8.73;4.10;;;;;;;24.37;52.70;100157.00;30863999;28;97390;-67
2023/07/16 20:58:26;;;;;;;5.38;2.85;;;;;;;23.66;53.09;100183.34;30862967;28;96765;-66
2023/07/16 21:13:26;;;;;;;4.63;2.28;;;;;;;22.93;53.51;100179.00;30861914;28;110206;-67
2023/07/16 21:28:26;;;;;;;8.68;2.30;;;;;;;22.42;53.94;100172.91;30859595;28;106718;-67
2023/07/16 21:43:27;;;;;;;;;;;;;;;21.95;54.76;100184.91;30909634;28;115194;-68
2023/07/16 21:58:27;;;;;;;3.00;1.80;;;;;;;21.92;54.68;100150.94;30894993;28;98031;-67
2023/07/16 22:13:27;;;;;;;5.47;2.40;;;;;;;21.78;55.76;100179.47;30916179;28;114116;-67
2023/07/16 22:28:28;;;;;;;3.97;2.22;;;;;;;21.62;55.83;100198.19;30922913;28;98856;-67
2023/07/16 22:43:28;;;;;;;4.20;2.30;;;;;;;21.66;56.09;100206.63;30867148;28;96753;-68
2023/07/16 22:58:29;;;;;;;4.47;2.23;;;;;;;21.64;56.26;100196.03;30870065;28;112122;-68
2023/07/16 23:13:30;;;;;;;3.87;2.00;;;;;;;21.52;56.02;100184.41;30903120;28;96690;-67
2023/07/16 23:28:30;;;;;;;4.13;1.95;;;;;;;21.40;55.38;100199.91;30961679;28;96601;-67
2023/07/16 23:43:30;;;;;;;2.83;1.97;;;;;;;21.30;55.10;100193.22;30939235;28;97100;-66
2023/07/16 23:58:31;;;;;;;2.78;1.67;;;;;;;21.44;54.88;100187.50;30871026;28;97460;-67
